Time;durP1;ratioP1;P1;durP2;ratioP2;P2;SDS_P1;SDS_P2;PMS_P1;PMS_P2;Temp;Humidity;BMP_temperature;BMP_pressure;BME280_temperature;BME280_humidity;BME280_pressure;Samples;Min_cycle;Max_cycle;Signal;HPM_P1;HPM_P2
2023/09/19 00:01:23;;;;;;;9.75;4.68;;;;;;;24.96;48.13;99848.31;5424227;32;35192;-71
2023/09/19 00:04:28;;;;;;;9.75;4.68;;;;;;;24.45;49.50;99850.19;5420327;32;33619;-71
2023/09/19 00:07:31;;;;;;;12.32;5.70;;;;;;;25.20;47.54;99851.06;5411211;32;34491;-70
2023/09/19 00:10:34;;;;;;;14.10;5.50;;;;;;;24.44;49.76;99856.56;5405470;32;34027;-72
2023/09/19 00:13:37;;;;;;;10.00;4.85;;;;;;;25.35;47.33;99857.47;5423934;32;34535;-69
2023/09/19 00:16:41;;;;;;;13.93;5.60;;;;;;;25.01;48.07;99848.66;5406307;32;34374;-69
2023/09/19 00:19:43;;;;;;;13.73;5.15;;;;;;;24.47;49.87;99851.72;5421139;32;34311;-69
2023/09/19 00:22:46;;;;;;;11.30;4.95;;;;;;;24.89;48.79;99849.97;5422387;32;34724;-69
2023/09/19 00:25:48;;;;;;;;;;;;;;;24.57;49.48;99852.41;5420489;32;34777;-70
2023/09/19 00:28:54;;;;;;;11.10;5.78;;;;;;;24.55;49.96;99859.81;5450020;32;35303;-72
2023/09/19 00:31:57;;;;;;;10.35;5.03;;;;;;;25.04;48.63;99848.31;5442676;32;34628;-69
2023/09/19 00:34:59;;;;;;;16.08;5.05;;;;;;;25.35;47.88;99844.00;5468008;32;35093;-73
2023/09/19 00:38:02;;;;;;;;;;;;;;;25.45;47.54;99846.53;5463014;32;34667;-69
2023/09/19 00:41:04;;;;;;;17.25;5.30;;;;;;;24.97;49.08;99852.69;5469991;32;34065;-72
2023/09/19 00:44:07;;;;;;;9.55;5.28;;;;;;;24.56;50.22;99839.16;5454346;32;34597;-70
2023/09/19 00:47:09;;;;;;;;;;;;;;;24.71;50.07;99850.09;5469153;32;35363;-70
2023/09/19 00:50:14;;;;;;;19.58;5.82;;;;;;;24.70;50.21;99840.37;5463326;32;35533;-72
2023/09/19 00:53:22;;;;;;;12.85;5.28;;;;;;;24.39;51.04;99843.63;5456338;32;35795;-71
2023/09/19 00:56:25;;;;;;;15.73;5.65;;;;;;;24.57;50.60;99844.34;5438435;32;34561;-71
2023/09/19 00:59:27;;;;;;;;;;;;;;;;;;5413410;32;35718;-72
2023/09/19 01:02:29;;;;;;;11.27;5.45;;;;;;;24.32;51.37;99848.75;5436202;32;34777;-71
2023/09/19 01:05:33;;;;;;;12.20;5.82;;;;;;;24.53;50.95;99844.84;5429454;32;34837;-71
2023/09/19 01:08:36;;;;;;;11.82;5.57;;;;;;;24.31;51.56;99839.03;5424593;32;34380;-69
2023/09/19 01:11:43;;;;;;;10.00;5.22;;;;;;;23.94;52.70;99835.81;5441295;32;34288;-72
2023/09/19 01:14:57;;;;;;;15.23;5.95;;;;;;;23.80;53.36;99839.09;5429856;32;34634;-74
2023/09/19 01:18:18;;;;;;;11.50;5.40;;;;;;;24.77;50.73;99844.06;5434913;32;34478;-72
2023/09/19 01:21:29;;;;;;;11.55;5.43;;;;;;;24.80;50.43;99833.84;5441643;32;34014;-69
2023/09/19 01:24:47;;;;;;;12.30;5.93;;;;;;;24.75;50.64;99841.56;5437282;32;35793;-70
2023/09/19 01:28:26;;;;;;;15.43;5.95;;;;;;;24.66;50.90;99844.38;5452261;32;34584;-70
2023/09/19 01:31:35;;;;;;;13.77;5.78;;;;;;;24.76;50.59;99847.78;5435114;32;34939;-72
2023/09/19 01:34:48;;;;;;;14.07;6.10;;;;;;;24.54;51.28;99838.50;5446019;32;35149;-70
2023/09/19 01:37:51;;;;;;;11.23;6.05;;;;;;;24.55;51.25;99838.31;5430171;32;34344;-70
2023/09/19 01:41:07;;;;;;;14.90;6.12;;;;;;;24.50;51.40;99840.66;5463288;32;34653;-73
2023/09/19 01:44:18;;;;;;;12.43;6.40;;;;;;;24.08;52.73;99835.22;5444967;32;34576;-72
2023/09/19 01:47:43;;;;;;;13.57;6.45;;;;;;;24.00;53.06;99833.34;5464418;32;34508;-70
2023/09/19 01:51:07;;;;;;;15.48;6.47;;;;;;;24.47;52.00;99826.69;5430106;32;34646;-69
2023/09/19 01:54:12;;;;;;;17.33;6.35;;;;;;;24.62;51.50;99824.22;5450076;32;34115;-70
2023/09/19 01:57:21;;;;;;;12.32;6.18;;;;;;;24.55;51.68;99830.25;5459424;32;34748;-70
2023/09/19 02:00:25;;;;;;;12.45;6.12;;;;;;;24.47;52.10;99821.31;5460959;32;34637;-70
2023/09/19 02:03:28;;;;;;;13.55;6.68;;;;;;;24.52;52.00;99829.72;5437901;32;34750;-73
2023/09/19 02:06:33;;;;;;;10.73;6.70;;;;;;;24.49;52.10;99822.84;5448732;32;34909;-71
2023/09/19 02:09:38;;;;;;;11.57;6.25;;;;;;;24.54;52.08;99828.59;5454340;32;35339;-71
2023/09/19 02:12:41;;;;;;;11.48;6.45;;;;;;;24.34;52.75;99828.97;5470032;32;34668;-69
2023/09/19 02:15:46;;;;;;;17.60;6.40;;;;;;;24.26;53.12;99835.13;5458691;32;34442;-72
2023/09/19 02:18:49;;;;;;;11.73;6.47;;;;;;;24.25;53.21;99836.16;5467855;32;35400;-73
2023/09/19 02:21:52;;;;;;;14.70;7.03;;;;;;;24.28;53.20;99831.31;5460569;32;35188;-69
2023/09/19 02:24:58;;;;;;;12.75;6.10;;;;;;;24.01;54.15;99836.84;5450352;32;35396;-71
2023/09/19 02:28:02;;;;;;;14.07;6.55;;;;;;;24.14;53.88;99834.56;5465944;32;35022;-71
2023/09/19 02:31:05;;;;;;;14.30;6.87;;;;;;;23.95;54.38;99827.59;5454630;32;34611;-71
2023/09/19 02:34:08;;;;;;;16.48;7.55;;;;;;;23.93;54.52;99831.44;5462967;32;34824;-69
2023/09/19 02:37:13;;;;;;;13.40;6.87;;;;;;;23.63;55.34;99817.50;5449665;32;34923;-72
2023/09/19 02:40:18;;;;;;;12.63;6.65;;;;;;;23.72;55.28;99824.63;5469567;32;34144;-69
2023/09/19 02:43:22;;;;;;;13.73;7.05;;;;;;;23.86;54.90;99823.19;5449603;32;34734;-71
2023/09/19 02:46:25;;;;;;;12.23;7.03;;;;;;;23.83;55.04;99828.91;5443198;32;35144;-69
2023/09/19 02:49:27;;;;;;;;;;;;;;;23.74;55.30;99824.47;5440711;32;34146;-72
2023/09/19 02:52:29;;;;;;;12.53;6.73;;;;;;;23.57;55.81;99823.50;5466348;32;35124;-71
2023/09/19 02:55:32;;;;;;;11.07;6.32;;;;;;;23.75;55.37;99826.97;5463886;32;34259;-69
2023/09/19 02:58:35;;;;;;;14.82;7.07;;;;;;;23.75;55.30;99818.94;5446708;32;34068;-70
2023/09/19 03:01:38;;;;;;;13.23;6.68;;;;;;;23.47;56.37;99825.41;5436989;32;34940;-69
2023/09/19 03:04:40;;;;;;;15.93;7.80;;;;;;;24.06;54.56;99821.13;5457947;32;34515;-68
2023/09/19 03:07:45;;;;;;;13.88;7.22;;;;;;;24.10;54.28;99818.97;5472326;32;35292;-70
2023/09/19 03:10:48;;;;;;;16.48;7.28;;;;;;;23.72;55.35;99815.75;5451421;32;35237;-73
2023/09/19 03:13:54;;;;;;;13.90;7.22;;;;;;;23.68;55.56;99817.87;5449171;32;34735;-70
2023/09/19 03:16:56;;;;;;;16.17;6.90;;;;;;;23.70;55.47;99821.28;5451146;32;34375;-72
2023/09/19 03:19:59;;;;;;;;;;;;;;;23.50;56.13;99822.41;5446309;32;34147;-72
2023/09/19 03:23:02;;;;;;;14.37;7.20;;;;;;;23.23;56.96;99832.25;5463164;32;34788;-71
2023/09/19 03:26:05;;;;;;;16.27;7.35;;;;;;;23.14;57.51;99822.47;5452533;32;34983;-69
2023/09/19 03:29:09;;;;;;;15.38;7.72;;;;;;;23.15;57.53;99824.16;5467381;32;35042;-69
2023/09/19 03:32:12;;;;;;;15.25;7.05;;;;;;;23.27;57.31;99815.88;5444284;32;35291;-69
2023/09/19 03:35:15;;;;;;;16.08;7.32;;;;;;;23.52;56.60;99820.44;5454686;32;34739;-68
2023/09/19 03:38:17;;;;;;;14.05;7.15;;;;;;;23.66;56.14;99824.41;5464335;32;34799;-72
2023/09/19 03:41:20;;;;;;;15.82;7.03;;;;;;;23.53;56.72;99827.47;5450000;32;34537;-72
2023/09/19 03:44:22;;;;;;;14.38;7.87;;;;;;;23.82;55.89;99827.19;5434005;32;34847;-70
2023/09/19 03:47:25;;;;;;;13.02;6.70;;;;;;;23.64;56.42;99826.44;5462076;32;34930;-71
2023/09/19 03:50:27;;;;;;;17.55;8.40;;;;;;;23.62;56.60;99828.41;5447638;32;34213;-70
2023/09/19 03:53:30;;;;;;;12.13;7.03;;;;;;;23.67;56.43;99828.78;5456157;32;34348;-69
2023/09/19 03:56:33;;;;;;;12.27;7.43;;;;;;;23.67;56.49;99829.62;5455881;32;34270;-69
2023/09/19 03:59:35;;;;;;;;;;;;;;;23.30;57.66;99837.00;5460816;32;35338;-71
2023/09/19 04:02:39;;;;;;;17.02;7.40;;;;;;;23.79;56.50;99827.50;5459960;32;34715;-73
2023/09/19 04:05:41;;;;;;;14.55;8.30;;;;;;;23.84;56.04;99832.41;5464317;32;34716;-69
2023/09/19 04:08:44;;;;;;;25.10;8.20;;;;;;;24.01;55.72;99842.22;5434058;32;34877;-68
2023/09/19 04:11:46;;;;;;;15.40;7.53;;;;;;;23.98;55.65;99847.94;5452493;32;34245;-70
2023/09/19 04:14:50;;;;;;;15.93;7.72;;;;;;;24.35;54.74;99849.50;5462351;32;34128;-71
2023/09/19 04:17:52;;;;;;;17.20;8.77;;;;;;;24.37;54.60;99842.94;5444841;32;34593;-72
2023/09/19 04:20:55;;;;;;;;;;;;;;;23.56;56.97;99847.78;5449124;32;34586;-72
2023/09/19 04:23:58;;;;;;;20.20;7.90;;;;;;;23.78;56.39;99845.47;5447662;32;34622;-72
2023/09/19 04:27:00;;;;;;;;;;;;;;;23.92;56.19;99845.88;5458618;32;35701;-72
2023/09/19 04:30:05;;;;;;;10.77;7.00;;;;;;;24.16;55.19;99848.69;5446122;32;34263;-72
2023/09/19 04:33:07;;;;;;;14.57;6.03;;;;;;;24.28;55.22;99855.47;5471574;32;34719;-70
2023/09/19 04:36:10;;;;;;;12.55;5.40;;;;;;;22.68;59.76;99863.69;5444565;32;35242;-68
2023/09/19 04:39:34;;;;;;;16.48;5.62;;;;;;;23.48;57.54;99856.59;5436649;32;35026;-70
2023/09/19 04:42:37;;;;;;;12.75;4.40;;;;;;;23.39;57.50;99871.78;5427349;32;34683;-72
2023/09/19 04:45:40;;;;;;;12.70;4.40;;;;;;;23.37;57.19;99871.09;5455242;32;34442;-71
2023/09/19 04:48:42;;;;;;;10.27;3.28;;;;;;;23.25;57.49;99872.34;5448990;32;34994;-70
2023/09/19 04:51:47;;;;;;;7.37;3.75;;;;;;;23.44;56.80;99876.66;5465125;32;34720;-69
2023/09/19 04:54:49;;;;;;;5.90;3.03;;;;;;;23.22;57.21;99878.84;5443654;32;33982;-69
2023/09/19 04:57:55;;;;;;;7.25;2.80;;;;;;;23.28;56.94;99890.78;5445263;32;34509;-70
2023/09/19 05:00:57;;;;;;;7.82;2.67;;;;;;;23.11;57.34;99891.63;5449841;32;33529;-72
2023/09/19 05:04:00;;;;;;;7.20;1.90;;;;;;;23.36;56.60;99908.78;5460430;32;34867;-71
2023/09/19 05:07:03;;;;;;;4.85;1.90;;;;;;;23.12;57.05;99894.16;5426235;32;34946;-72
2023/09/19 05:10:06;;;;;;;3.40;1.60;;;;;;;22.60;59.03;99899.22;5445098;32;35216;-73
2023/09/19 05:13:08;;;;;;;5.20;1.73;;;;;;;22.22;60.07;99905.62;5457283;32;34395;-69
2023/09/19 05:16:11;;;;;;;3.50;2.00;;;;;;;22.47;59.52;99904.09;5446341;32;35758;-73
2023/09/19 05:19:13;;;;;;;3.67;1.37;;;;;;;22.46;59.59;99909.59;5451473;32;34709;-72
2023/09/19 05:22:15;;;;;;;3.75;1.40;;;;;;;22.75;58.77;99923.69;5433260;32;35057;-69
2023/09/19 05:25:18;;;;;;;3.60;1.67;;;;;;;22.59;59.78;99921.66;5453927;32;35253;-69
2023/09/19 05:28:21;;;;;;;5.00;1.40;;;;;;;22.81;59.17;99923.09;5445054;32;36611;-72
2023/09/19 05:31:24;;;;;;;5.07;1.60;;;;;;;22.18;61.38;99930.97;5461631;32;34399;-72
2023/09/19 05:34:30;;;;;;;7.25;1.33;;;;;;;22.16;61.77;99938.31;5468923;32;34566;-72
2023/09/19 05:37:32;;;;;;;4.10;1.40;;;;;;;21.46;64.47;99951.03;5461713;32;34809;-67
2023/09/19 05:40:35;;;;;;;2.80;1.10;;;;;;;22.12;62.06;99944.94;5465357;32;35360;-66
2023/09/19 05:43:37;;;;;;;3.03;1.25;;;;;;;21.39;65.20;99955.25;5459560;32;34104;-64
2023/09/19 05:46:40;;;;;;;3.83;1.30;;;;;;;21.59;64.14;99948.91;5463212;32;34095;-75
2023/09/19 05:49:43;;;;;;;1.58;1.10;;;;;;;21.88;62.86;99943.53;5457843;32;34061;-87
2023/09/19 05:52:52;;;;;;;3.03;1.37;;;;;;;21.46;64.43;99944.84;5448701;32;34936;-66
2023/09/19 05:55:55;;;;;;;2.20;0.88;;;;;;;21.44;64.28;99923.56;5446090;32;35926;-71
2023/09/19 05:58:58;;;;;;;1.35;0.80;;;;;;;21.44;63.37;99949.47;5459819;32;34012;-70
2023/09/19 06:02:00;;;;;;;1.37;0.80;;;;;;;21.16;64.10;99959.97;5450662;32;35304;-68
2023/09/19 06:05:05;;;;;;;2.25;1.20;;;;;;;21.22;63.93;99956.75;5457336;32;34239;-68
2023/09/19 06:08:09;;;;;;;3.53;0.95;;;;;;;21.42;63.75;99964.81;5460879;32;35847;-67
2023/09/19 06:11:11;;;;;;;4.15;1.05;;;;;;;21.77;62.42;99965.09;5436618;32;33925;-72
2023/09/19 06:14:14;;;;;;;4.53;1.90;;;;;;;21.13;64.81;99970.94;5453699;32;34406;-65
2023/09/19 06:17:17;;;;;;;2.25;1.30;;;;;;;21.90;62.26;99975.50;5446791;32;35460;-68
2023/09/19 06:20:23;;;;;;;4.45;1.45;;;;;;;22.03;61.30;99968.03;5433448;32;33628;-76
2023/09/19 06:23:26;;;;;;;2.75;0.98;;;;;;;21.78;62.11;99982.00;5431904;32;34034;-78
2023/09/19 06:26:29;;;;;;;4.60;1.12;;;;;;;21.26;63.78;99978.69;5422241;32;35286;-68
2023/09/19 06:29:31;;;;;;;11.05;1.35;;;;;;;21.72;62.73;99970.03;5421373;32;33957;-76
2023/09/19 06:32:34;;;;;;;4.25;1.30;;;;;;;21.61;62.67;99980.88;5373142;32;33939;-75
2023/09/19 06:35:36;;;;;;;2.87;1.30;;;;;;;21.82;62.06;99984.22;5388086;32;36046;-68
2023/09/19 06:38:40;;;;;;;3.22;1.20;;;;;;;21.48;63.57;99991.84;5382494;32;34726;-69
2023/09/19 06:41:43;;;;;;;2.08;0.98;;;;;;;21.66;62.05;99991.16;5389830;32;36204;-69
2023/09/19 06:44:45;;;;;;;6.00;0.93;;;;;;;21.95;61.64;99988.44;5393542;32;34453;-73
2023/09/19 06:47:50;;;;;;;2.70;1.23;;;;;;;20.28;67.78;100001.44;5387696;32;34004;-72
2023/09/19 06:50:58;;;;;;;4.20;1.08;;;;;;;20.75;66.74;100001.03;5380923;32;34009;-69
2023/09/19 06:54:05;;;;;;;1.33;1.00;;;;;;;22.00;61.88;99997.75;5397631;32;35468;-71
2023/09/19 06:57:10;;;;;;;1.85;0.90;;;;;;;21.97;61.37;100008.75;5359316;32;36892;-67
2023/09/19 07:00:22;;;;;;;2.62;1.05;;;;;;;21.62;63.18;100012.81;5365478;32;35447;-69
2023/09/19 07:03:27;;;;;;;5.12;1.15;;;;;;;21.48;63.94;100017.72;5392410;32;35026;-69
2023/09/19 07:06:29;;;;;;;3.95;0.95;;;;;;;20.84;66.16;100008.25;5395214;32;37363;-69
2023/09/19 07:09:32;;;;;;;2.45;1.20;;;;;;;21.69;63.93;100020.28;5388446;32;33957;-67
2023/09/19 07:12:34;;;;;;;1.90;1.10;;;;;;;21.48;65.15;100025.75;5376045;32;35601;-71
2023/09/19 07:15:46;;;;;;;3.90;1.00;;;;;;;21.07;66.36;100036.44;5395219;32;34006;-72
2023/09/19 07:18:49;;;;;;;3.33;1.10;;;;;;;21.78;63.91;100038.16;5394705;32;33634;-74
2023/09/19 07:21:51;;;;;;;2.10;1.20;;;;;;;21.73;63.02;100048.44;5388934;32;35092;-68
2023/09/19 07:24:54;;;;;;;;;;;;;;;21.31;65.80;100048.62;5385978;32;33928;-73
2023/09/19 07:27:59;;;;;;;2.55;1.48;;;;;;;20.96;66.33;100049.91;5362570;32;34090;-72
2023/09/19 07:31:04;;;;;;;9.73;4.82;;;;;;;21.59;64.34;100055.03;5378803;32;34136;-74
2023/09/19 07:34:08;;;;;;;1.05;0.85;;;;;;;22.07;62.54;100043.50;5374119;32;35701;-71
2023/09/19 07:37:11;;;;;;;4.62;1.30;;;;;;;21.48;65.38;100058.66;5384833;32;34531;-73
2023/09/19 07:40:13;;;;;;;;;;;;;;;21.55;65.09;100053.63;5379067;32;35582;-70
2023/09/19 07:43:15;;;;;;;2.37;1.15;;;;;;;21.93;63.29;100060.00;5394524;32;34309;-72
2023/09/19 07:46:17;;;;;;;3.17;1.27;;;;;;;21.92;63.23;100056.47;5389976;32;33988;-69
2023/09/19 07:49:19;;;;;;;2.45;1.20;;;;;;;21.09;66.80;100065.69;5389681;32;33974;-75
2023/09/19 07:52:22;;;;;;;2.28;1.35;;;;;;;21.04;67.92;100079.47;5391558;32;34175;-71
2023/09/19 07:55:25;;;;;;;2.75;1.30;;;;;;;21.60;66.16;100072.78;5390168;32;34140;-72
2023/09/19 07:58:28;;;;;;;4.82;1.20;;;;;;;21.66;67.93;100074.06;5398242;32;35376;-77
2023/09/19 08:01:32;;;;;;;;;;;;;;;21.35;69.43;100082.97;5391334;32;33969;-75
2023/09/19 08:04:35;;;;;;;3.58;1.48;;;;;;;21.18;68.61;100088.09;5376254;32;36048;-75
2023/09/19 08:07:39;;;;;;;7.40;1.60;;;;;;;20.25;74.56;100102.28;5371767;32;32097;-71
2023/09/19 08:10:43;;;;;;;7.45;2.15;;;;;;;20.94;71.31;100097.28;5391591;32;35260;-78
2023/09/19 08:13:48;;;;;;;2.75;1.25;;;;;;;21.37;69.47;100097.03;5387965;32;34196;-71
2023/09/19 08:16:51;;;;;;;4.53;1.60;;;;;;;21.58;67.84;100102.34;5391480;32;36166;-81
2023/09/19 08:19:53;;;;;;;3.58;1.40;;;;;;;21.29;69.57;100106.72;5379051;32;33167;-77
2023/09/19 08:23:01;;;;;;;4.55;1.25;;;;;;;21.69;68.21;100116.56;5396155;32;33815;-78
2023/09/19 08:26:08;;;;;;;3.85;1.50;;;;;;;20.91;71.82;100129.59;5377670;32;35856;-78
2023/09/19 08:29:12;;;;;;;3.53;1.25;;;;;;;21.45;69.97;100136.50;5385419;32;34361;-72
2023/09/19 08:32:18;;;;;;;5.00;1.50;;;;;;;20.44;73.17;100146.97;5382800;32;34881;-80
2023/09/19 08:35:21;;;;;;;2.87;1.23;;;;;;;21.00;72.19;100136.00;5385148;32;34134;-74
2023/09/19 08:38:23;;;;;;;;;;;;;;;20.94;71.32;100140.03;5382656;32;35048;-74
2023/09/19 08:41:26;;;;;;;3.58;1.75;;;;;;;21.13;70.74;100138.44;5372761;32;35004;-72
2023/09/19 08:44:31;;;;;;;2.40;1.30;;;;;;;21.03;72.00;100139.22;5401763;32;34079;-76
2023/09/19 08:47:58;;;;;;;3.47;1.30;;;;;;;22.21;65.56;100150.16;5370099;32;35137;-69
2023/09/19 08:51:08;;;;;;;4.87;1.95;;;;;;;21.37;68.22;100165.69;5391512;32;35583;-68
2023/09/19 08:54:27;;;;;;;4.87;1.75;;;;;;;21.61;69.12;100174.25;5385468;32;34232;-73
2023/09/19 08:57:35;;;;;;;2.10;1.10;;;;;;;21.63;69.33;100171.44;5376852;32;33834;-70
2023/09/19 09:00:42;;;;;;;4.10;1.50;;;;;;;21.29;68.60;100193.09;5359072;32;34240;-69
2023/09/19 09:03:46;;;;;;;5.35;1.70;;;;;;;20.69;71.18;100202.69;5367638;32;33156;-78
2023/09/19 09:06:53;;;;;;;4.37;1.30;;;;;;;21.23;70.72;100204.28;5364968;32;35975;-83
2023/09/19 09:09:55;;;;;;;3.50;1.48;;;;;;;21.44;68.53;100206.13;5372187;32;34127;-71
2023/09/19 09:12:58;;;;;;;3.03;1.50;;;;;;;21.61;69.60;100184.94;5342588;32;34132;-78
2023/09/19 09:16:00;;;;;;;;;;;;;;;21.53;69.09;100178.59;5353901;32;33992;-68
2023/09/19 09:19:02;;;;;;;4.68;1.80;;;;;;;21.02;73.09;100164.25;5355574;32;35066;-76
2023/09/19 09:22:08;;;;;;;5.70;1.73;;;;;;;21.38;72.30;100143.34;5349206;32;33939;-79
2023/09/19 09:25:10;;;;;;;2.05;1.30;;;;;;;22.15;69.77;100131.97;5344228;32;35417;-68
2023/09/19 09:28:19;;;;;;;5.07;2.30;;;;;;;23.31;63.02;100147.03;5324967;32;35410;-88
2023/09/19 09:31:24;;;;;;;4.87;1.75;;;;;;;22.69;66.06;100135.91;5341635;32;33852;-68
2023/09/19 09:34:33;;;;;;;4.37;1.42;;;;;;;23.23;63.08;100120.97;5340150;32;34821;-68
2023/09/19 09:37:38;;;;;;;5.20;1.50;;;;;;;23.19;63.16;100112.38;5341846;32;34560;-72
2023/09/19 09:41:07;;;;;;;3.17;1.87;;;;;;;22.70;64.93;100106.28;5353109;32;38373;-78
2023/09/19 09:44:15;;;;;;;5.93;1.70;;;;;;;22.38;64.92;100119.16;5354286;32;34510;-81
2023/09/19 09:47:57;;;;;;;3.50;1.58;;;;;;;23.54;63.26;100116.16;5338887;32;34019;-78
2023/09/19 09:51:03;;;;;;;2.97;1.50;;;;;;;21.80;67.13;100125.31;5354859;32;33985;-82
2023/09/19 09:54:16;;;;;;;3.97;1.40;;;;;;;22.79;64.72;100139.41;5331849;32;40097;-68
2023/09/19 09:57:23;;;;;;;4.57;1.40;;;;;;;22.83;64.65;100146.16;5322820;32;33985;-69
2023/09/19 10:00:32;;;;;;;3.92;1.30;;;;;;;22.85;63.57;100162.94;5347755;32;33852;-69
2023/09/19 10:03:39;;;;;;;5.32;1.62;;;;;;;22.16;66.92;100160.47;5346033;32;34310;-68
2023/09/19 10:06:51;;;;;;;3.72;1.48;;;;;;;22.67;63.69;100157.50;5342881;32;34092;-67
2023/09/19 10:09:59;;;;;;;2.70;1.27;;;;;;;21.51;68.35;100156.47;5351178;32;33902;-72
2023/09/19 10:13:02;;;;;;;2.75;1.50;;;;;;;21.92;67.74;100144.75;5339315;32;33887;-80
2023/09/19 10:16:09;;;;;;;3.40;1.50;;;;;;;22.81;65.64;100152.69;5338514;32;34330;-79
2023/09/19 10:19:33;;;;;;;4.43;1.65;;;;;;;24.29;60.13;100155.22;5337069;32;35148;-79
2023/09/19 10:22:36;;;;;;;3.83;1.50;;;;;;;24.32;57.52;100152.22;5347800;32;36428;-70
2023/09/19 10:25:45;;;;;;;4.57;1.60;;;;;;;24.54;56.69;100155.47;5338868;32;33935;-69
2023/09/19 10:28:51;;;;;;;6.82;2.75;;;;;;;23.02;60.88;100158.72;5338066;32;35329;-74
2023/09/19 10:31:54;;;;;;;4.85;1.67;;;;;;;23.96;58.52;100156.75;5356239;32;34316;-68
2023/09/19 10:34:57;;;;;;;2.05;1.30;;;;;;;23.75;57.78;100159.69;5328158;32;35209;-75
2023/09/19 10:38:01;;;;;;;3.05;1.50;;;;;;;23.61;58.37;100168.25;5341186;32;36248;-72
2023/09/19 10:41:05;;;;;;;2.83;1.55;;;;;;;23.37;59.36;100183.97;5339328;32;33811;-69
2023/09/19 10:44:09;;;;;;;3.08;1.58;;;;;;;22.82;60.94;100181.16;5355051;32;33399;-74
2023/09/19 10:47:14;;;;;;;2.40;1.40;;;;;;;22.79;61.51;100176.06;5339879;32;32919;-70
2023/09/19 10:50:23;;;;;;;3.45;1.70;;;;;;;22.70;60.76;100178.63;5338311;32;35475;-70
2023/09/19 10:53:28;;;;;;;4.10;1.77;;;;;;;23.24;59.84;100166.37;5353211;32;36108;-67
2023/09/19 10:56:41;;;;;;;3.92;2.00;;;;;;;23.49;59.77;100175.59;5352234;32;35713;-69
2023/09/19 11:03:31;;;;;;;5.12;1.83;;;;;;;22.54;61.94;100189.09;5341741;32;36120;-79
2023/09/19 11:06:41;;;;;;;7.97;2.90;;;;;;;22.83;61.12;100196.22;5351290;32;34067;-68
2023/09/19 11:09:54;;;;;;;4.37;1.60;;;;;;;23.17;61.25;100192.09;5325812;32;35264;-76
2023/09/19 11:13:29;;;;;;;4.95;1.37;;;;;;;23.15;60.86;100199.44;5354708;32;35855;-73
2023/09/19 11:16:37;;;;;;;3.50;1.40;;;;;;;23.68;58.11;100198.84;5344367;32;34013;-72
2023/09/19 11:23:17;;;;;;;4.43;1.50;;;;;;;24.37;56.85;100204.69;5344961;32;36085;-74
2023/09/19 11:27:09;;;;;;;3.05;1.60;;;;;;;23.93;56.17;100199.97;5352078;32;34060;-72
2023/09/19 11:30:43;;;;;;;4.00;1.50;;;;;;;25.23;53.80;100202.19;5324709;32;34019;-70
2023/09/19 11:33:48;;;;;;;3.20;1.40;;;;;;;25.10;50.69;100195.38;5338503;32;35228;-71
2023/09/19 11:36:54;;;;;;;3.87;1.20;;;;;;;25.49;49.82;100192.25;5328170;32;33927;-81
2023/09/19 11:40:13;;;;;;;2.50;1.40;;;;;;;24.84;49.95;100197.19;5348584;32;36003;-70
2023/09/19 11:43:29;;;;;;;;;;;;;;;25.55;49.66;100188.06;5354862;32;34258;-71
2023/09/19 11:46:33;;;;;;;2.80;1.33;;;;;;;25.93;48.11;100176.81;5347541;32;34117;-68
2023/09/19 11:49:40;;;;;;;4.18;1.45;;;;;;;26.73;44.88;100169.03;5328739;32;36604;-70
2023/09/19 11:52:44;;;;;;;3.87;2.37;;;;;;;25.08;49.77;100175.03;5332899;32;35725;-72
2023/09/19 11:55:47;;;;;;;5.43;1.60;;;;;;;24.65;50.67;100165.97;5326939;32;35678;-72
2023/09/19 11:58:54;;;;;;;2.15;1.40;;;;;;;25.27;48.49;100160.53;5340852;32;33980;-83
2023/09/19 12:01:59;;;;;;;2.45;1.33;;;;;;;25.65;48.40;100157.34;5340025;32;34082;-72
2023/09/19 12:05:03;;;;;;;3.87;1.73;;;;;;;26.90;45.02;100150.97;5322610;32;36896;-71
2023/09/19 12:08:08;;;;;;;2.30;1.20;;;;;;;27.38;42.65;100145.66;5343717;32;36541;-80
2023/09/19 12:11:15;;;;;;;2.25;1.40;;;;;;;28.29;41.12;100158.50;5334348;32;35110;-73
2023/09/19 12:14:22;;;;;;;7.82;1.60;;;;;;;27.29;42.97;100144.81;5336422;32;34166;-72
2023/09/19 12:17:45;;;;;;;3.78;1.45;;;;;;;26.02;45.48;100158.84;5317097;32;34486;-73
2023/09/19 12:20:47;;;;;;;3.42;1.27;;;;;;;25.96;46.22;100150.56;5348227;32;34925;-72
2023/09/19 12:23:59;;;;;;;4.85;2.75;;;;;;;25.57;46.69;100164.56;5335981;32;34725;-72
2023/09/19 12:27:05;;;;;;;;;;;;;;;25.15;48.20;100159.13;5348127;32;34133;-79
2023/09/19 12:30:10;;;;;;;2.85;1.58;;;;;;;25.25;47.75;100162.56;5348949;32;36214;-86
2023/09/19 12:33:28;;;;;;;1.83;1.48;;;;;;;26.18;46.40;100171.47;5328759;32;32884;-72
2023/09/19 12:36:30;;;;;;;6.82;1.98;;;;;;;26.20;46.00;100174.84;5345215;32;34243;-70
2023/09/19 12:39:32;;;;;;;;;;;;;;;25.45;47.43;100182.00;5355755;32;34175;-70
2023/09/19 12:42:35;;;;;;;4.20;1.50;;;;;;;25.59;47.87;100178.69;5341031;32;35201;-72
2023/09/19 12:45:38;;;;;;;8.13;2.00;;;;;;;26.04;47.00;100177.50;5350179;32;34554;-74
2023/09/19 12:48:45;;;;;;;2.25;1.50;;;;;;;26.28;47.48;100180.25;5351530;32;36062;-69
2023/09/19 12:51:49;;;;;;;4.22;1.75;;;;;;;25.48;47.38;100181.66;5351023;32;35307;-69
2023/09/19 12:54:54;;;;;;;5.28;1.80;;;;;;;26.35;45.80;100180.44;5337037;32;36932;-71
2023/09/19 12:58:03;;;;;;;3.72;1.60;;;;;;;29.62;38.65;100166.88;5349264;32;34089;-71
2023/09/19 13:01:14;;;;;;;5.37;1.55;;;;;;;27.71;42.06;100173.38;5355605;32;33933;-70
2023/09/19 13:04:19;;;;;;;7.05;1.87;;;;;;;25.72;47.17;100173.69;5336697;32;34050;-74
2023/09/19 13:07:48;;;;;;;3.67;1.67;;;;;;;26.16;46.77;100170.81;5347459;32;36137;-70
2023/09/19 13:11:13;;;;;;;2.72;1.60;;;;;;;28.59;41.47;100163.00;5350592;32;35852;-70
2023/09/19 13:14:40;;;;;;;5.55;1.70;;;;;;;29.07;39.15;100170.91;5346832;32;36555;-73
2023/09/19 13:17:43;;;;;;;2.22;1.30;;;;;;;31.87;34.75;100154.44;5344054;32;34162;-74
2023/09/19 13:21:06;;;;;;;6.87;1.83;;;;;;;32.28;34.12;100157.88;5324772;32;34018;-70
2023/09/19 13:24:20;;;;;;;7.05;2.05;;;;;;;34.79;29.37;100149.16;5347947;32;33878;-74
2023/09/19 13:27:23;;;;;;;4.55;1.55;;;;;;;31.70;33.90;100162.09;5350437;32;36623;-78
2023/09/19 13:30:28;;;;;;;2.75;1.70;;;;;;;27.67;41.29;100170.16;5350532;32;36459;-68
2023/09/19 13:33:30;;;;;;;4.50;2.08;;;;;;;27.86;41.35;100168.91;5319164;32;36308;-76
2023/09/19 13:36:34;;;;;;;3.72;1.80;;;;;;;26.49;44.20;100169.03;5316027;32;33891;-73
2023/09/19 13:39:37;;;;;;;3.20;1.85;;;;;;;25.63;46.29;100169.25;5353487;32;34222;-75
2023/09/19 13:42:41;;;;;;;4.03;1.70;;;;;;;27.00;43.48;100175.91;5340302;32;34784;-84
2023/09/19 13:45:43;;;;;;;4.43;1.73;;;;;;;26.51;44.33;100179.63;5328509;32;34154;-81
2023/09/19 13:48:45;;;;;;;;;;;;;;;25.56;45.46;100179.00;5353791;32;34008;-73
2023/09/19 13:51:48;;;;;;;3.17;1.77;;;;;;;25.33;46.58;100195.72;5348991;32;33115;-75
2023/09/19 13:54:50;;;;;;;4.50;2.05;;;;;;;25.99;45.37;100201.41;5345014;32;33955;-78
2023/09/19 13:57:56;;;;;;;4.53;1.80;;;;;;;25.70;46.62;100202.63;5336993;32;33342;-69
2023/09/19 14:00:58;;;;;;;5.30;1.80;;;;;;;25.98;46.39;100197.03;5381983;32;37889;-72
2023/09/19 14:04:02;;;;;;;6.75;2.55;;;;;;;25.70;46.62;100202.63;5440874;32;34245;-72
2023/09/19 14:07:04;;;;;;;3.03;1.80;;;;;;;25.73;46.62;100207.69;5438064;32;35285;-70
2023/09/19 14:10:08;;;;;;;7.97;2.78;;;;;;;25.32;47.17;100217.41;5440834;32;34130;-75
2023/09/19 14:13:12;;;;;;;5.53;1.90;;;;;;;25.15;47.06;100207.53;5413066;32;35642;-78
2023/09/19 14:16:16;;;;;;;4.65;2.55;;;;;;;25.21;47.46;100218.50;5441969;32;34817;-78
2023/09/19 14:19:18;;;;;;;5.45;2.00;;;;;;;24.86;48.86;100205.97;5427030;32;35074;-73
2023/09/19 14:22:21;;;;;;;;;;;;;;;25.08;48.18;100215.38;5420255;32;34099;-75
2023/09/19 14:25:23;;;;;;;3.50;1.90;;;;;;;24.83;49.37;100201.72;5447353;32;35036;-79
2023/09/19 14:28:25;;;;;;;4.47;1.75;;;;;;;25.93;47.41;100205.59;5441843;32;34867;-72
2023/09/19 14:31:27;;;;;;;5.28;2.20;;;;;;;25.89;47.69;100207.78;5446389;32;35204;-73
2023/09/19 14:34:30;;;;;;;6.93;1.83;;;;;;;25.99;47.18;100202.22;5431551;32;34605;-73
2023/09/19 14:37:32;;;;;;;3.65;1.85;;;;;;;25.69;48.25;100200.91;5436421;32;35186;-74
2023/09/19 14:40:36;;;;;;;;;;;;;;;25.77;47.79;100201.00;5422645;32;34089;-77